Impacts TAF Board INFO
FOR SITUATIONAL AWARENESS. NOT TO BE USED FOR FLIGHT PLANNING PURPOSES.
IDs:

KTPA - Tampa Intl Arpt, FL, US

Issued at 1120 UTC 18 Jan 2018
Updated at 1155 UTC 18 Jan 2018
Potential Impact None Slight Moderate High
Time1053Z 18/12Z 18/13Z 18/14Z 18/15Z 18/16Z 18/17Z 18/18Z 18/19Z 18/20Z 18/21Z 18/22Z 18/23Z 19/00Z>>
Type OBS PRVL PRVL PRVL PRVL PRVL PRVL PRVL PRVL PRVL PRVL PRVL PRVL PRVL
VIS 10 >6 >6 >6 >6 >6 >6 >6 >6 >6 >6 >6 >6 >6
CIG -- -- -- -- -- -- -- -- -- -- -- -- -- --
Cover CLR SKC SKC SKC SKC SKC SKC SKC SKC SKC SKC SKC SKC SKC
FltCat VFR VFR VFR VFR VFR VFR VFR VFR VFR VFR VFR VFR VFR VFR
WX -- -- -- -- -- -- -- -- -- -- -- -- -- --
WDir 10 360 360 360 360 360 360 360 360 360 360 360 360 360
WSpd 11 9 9 9 9 9 9 9 9 9 9 9 9 9
WGst -- -- -- -- -- -- -- -- -- -- -- -- -- --

Raw TAF
KTPA 181120Z 1812/1918 36009KT P6SM SKC
  FM190200 04004KT P6SM SKC


Raw METAR
KTPA 181053Z 01011KT 10SM CLR M02/M11 A3038 RMK AO2 SLP288 T10171106
KTPA 180953Z 36010KT 10SM CLR M01/M11 A3037 RMK AO2 SLP285 T10111106
KTPA 180853Z 36007KT 10SM CLR 00/M09 A3038 RMK AO2 SLP286 T00001089 53005

METAR Board
Radar Display
Forecast Discussion

FOR SITUATIONAL AWARENESS. NOT TO BE USED FOR FLIGHT PLANNING PURPOSES.